Latest Weather Forecast - Wednesday 25th March 2020 (12 Noon)

Forecast Period: 

12:00 pm 25th March 2020 to 6:00 pm 25th March 2020

Synopsis: The Atlantic high pressure system will be the dominant feature
Forecast:

Partly cloudy to cloudy with isolated showers.

Weather 
Advisory/Warning:

 None

Winds:

Generally from the East at 15 to 35 km/h

Sea Conditions:

Slight to moderate in open water with swells from 1.0m to 1.5m.

Marine  Advisory/Warning:

 None

Upcoming Tides:

High:7:36 pm    -8:57 pm

Low:1:26 pm     -3:24 am

Aviation WX

[Source: ADDS]
METAR
TVSA 301500Z 07013KT 030V110 9999 FEW022 29/21 Q1015 NOSIG =
TVSA 301100Z 3012/3112 06009KT 9999 SCT018 PROB30 TEMPO 3100/3109 SHRA BKN015 SCT036
TAF
TVSA 301100Z 3012/3112 06009KT 9999 SCT018 PROB30 TEMPO 3100/3109 SHRA BKN015 SCT036 =
SR / SS: 10:01 / 22:16 UTC (Sunrise Sunset 2020-03-30)